Portada
METAR-TAF:

METAR-TAF

Aeroports :

Stanly County Airport

Albemarle, Carolina del Nord, Estats Units d'Amèrica

latitud: 35-25-00N, longitud: 080-09-03W, altitud: 186 m

Observació

L'informe es va fer fa 19 minuts, a les 08:35 UTC
Vent 5 kt del Nord
Temperatura 23°C
Humitat 94%
Pressió 1014 hPa
Visibilitat: 16.1 km
Cel ennuvolat a una alçada de 800 ft
Cel cobert a una alçada de 1900 ft

METAR: KVUJ 090835Z AUTO 01005KT 10SM BKN008 OVC019 23/22 A2993 RMK AO2 T02300222

Hora: 04:54 (08:54 UTC)


TAF: manca

Observacions i pronòstics meteorològics de més de 4000 aeroports (METAR i TAF).

Les estacions disponibles són els punts grocs i vermells al mapa.

Posi el ratolí al punt desitjat per veure el nom de l'estació.

Feu clic per veure les observacions i els pronòstics meteorològics.

Per canviar el mapa: feu clic els botons verds amb una creu de color negre per apropar; al botó verd amb un guió per allunyar la imatge; o en les fletxes verdes per a mapes adjacents.


METAR-TAF: